• Join FlightAware (Why Join?)
  • Login
  • US Flag 
11:55PM EDT


 

Airport Tracker/Info


-or-


 

Live Flight TrackerFlight Track Log ✈ N860BA ✈ 14-Oct-2013 ✈ KSJC - KTEB

Flight Track Log - Related Links

Times and Time Zones

All times are in EDT time to prevent confusion due to time zone crossing. See the N860BA flight status page for this flight to view local times or setup timezone preferences in your user account.

Time Position Orientation Groundspeed Altitude Reporting Facility
EDT Latitude Longitude Course Direction KTS MPH feet Rate Location/Type
07:12PM 37.3833 -121.9500 345° North 169 194 1,100  Level Northern Cal TRACON
07:13PM 37.4333 -121.9667 345° North 225 259 3,300 2,040 Climbing Northern Cal TRACON
07:14PM 37.4333 -121.9000 90° East 244 281 5,000 1,980 Climbing Northern Cal TRACON
07:15PM 37.3833 -121.8500 142° Southeast 265 305 7,100 1,860 Climbing Northern Cal TRACON
07:16PM 37.3539 -121.8164 138° Southeast 260 299 7,900 1,860 Climbing Oakland Center
07:17PM 37.2831 -121.8517 202° Southwest 320 368 10,100 2,100 Climbing Oakland Center
07:18PM 37.3217 -121.9353 300° West 310 357 12,300 2,100 Climbing Oakland Center
07:19PM 37.4083 -121.9492 353° North 313 360 14,400 1,980 Climbing Oakland Center
07:20PM 37.4969 -121.9583 355° North 319 367 16,400 2,040 Climbing Oakland Center
07:21PM 37.6056 -121.9694 355° North 327 376 18,700 2,040 Climbing Oakland Center
07:22PM 37.6883 -121.9394 16° North 331 381 20,700 1,920 Climbing Oakland Center
07:23PM 37.7519 -121.8547 46° Northeast 332 382 22,700 1,500 Climbing Oakland Center
07:24PM 37.8164 -121.7692 46° Northeast 336 387 23,800 900 Climbing Oakland Center
07:25PM 37.8858 -121.6767 46° Northeast 356 410 24,600 780 Climbing Oakland Center
07:26PM 37.9611 -121.5775 46° Northeast 385 443 25,400 780 Climbing Oakland Center
07:27PM 38.0467 -121.4639 46° Northeast 406 467 26,300 780 Climbing Oakland Center
07:28PM 38.1286 -121.3558 46° Northeast 423 487 27,100 780 Climbing Oakland Center
07:29PM 38.2117 -121.2447 46° Northeast 433 498 27,900 780 Climbing Oakland Center
07:30PM 38.2953 -121.1322 47° Northeast 440 506 28,700 720 Climbing Oakland Center
07:31PM 38.3794 -121.0186 47° Northeast 445 512 29,400 780 Climbing Oakland Center
07:32PM 38.4814 -120.8811 47° Northeast 449 517 30,300 720 Climbing Oakland Center
07:33PM 38.5667 -120.7656 47° Northeast 450 518 30,900 480 Climbing Oakland Center
07:34PM 38.6539 -120.6481 46° Northeast 455 524 31,400 480 Climbing Oakland Center
07:35PM 38.7414 -120.5283 47° Northeast 460 529 31,900 480 Climbing Oakland Center
07:36PM 38.8286 -120.4083 47° Northeast 461 531 32,400 420 Climbing Oakland Center
07:37PM 38.9161 -120.2872 47° Northeast 463 533 32,800 420 Climbing Oakland Center
07:38PM 39.0039 -120.1669 47° Northeast 463 533 33,300 480 Climbing Oakland Center
07:39PM 39.1031 -120.0308 47° Northeast 462 532 33,800 420 Climbing Oakland Center
07:40PM 39.1906 -119.9089 47° Northeast 462 532 34,200 420 Climbing Oakland Center
07:41PM 39.2783 -119.7883 47° Northeast 464 534 34,700 420 Climbing Oakland Center
07:42PM 39.3664 -119.6650 47° Northeast 463 533 35,100 420 Climbing Oakland Center
07:43PM 39.4542 -119.5439 47° Northeast 462 532 35,600 420 Climbing Oakland Center
07:44PM 39.5386 -119.4228 48° Northeast 453 521 36,000 420 Climbing Oakland Center
07:45PM 39.6222 -119.3011 48° Northeast 448 516 36,500 420 Climbing Oakland Center
07:46PM 39.7069 -119.1808 48° Northeast 448 516 36,900 240 Climbing Oakland Center
07:47PM 39.7906 -119.0614 48° Northeast 445 512 37,000  Climbing Oakland Center
07:48PM 39.8911 -118.9167 48° Northeast 444 511 37,000  Level Oakland Center
07:50PM 39.9739 -118.7975 48° Northeast 442 509 37,000  Level Oakland Center
07:51PM 40.0547 -118.6792 48° Northeast 437 503 37,000  Level Oakland Center
07:52PM 40.1275 -118.5500 54° Northeast 445 512 37,000  Level Oakland Center
07:53PM 40.1653 -118.3869 73° East 464 534 37,000  Level Oakland Center
07:54PM 40.1961 -118.2361 75° East 464 534 37,000  Level Salt Lake Center
07:55PM 40.2281 -118.0811 75° East 463 533 37,000  Level Salt Lake Center
07:56PM 40.2653 -117.8997 75° East 462 532 37,000  Level Salt Lake Center
07:57PM 40.2961 -117.7447 75° East 460 529 37,000  Level Salt Lake Center
07:58PM 40.3269 -117.5900 75° East 459 528 37,000  Level Salt Lake Center
07:59PM 40.3631 -117.4111 75° East 455 524 37,000  Level Salt Lake Center
08:00PM 40.3928 -117.2603 75° East 449 517 37,000  Level Salt Lake Center
08:01PM 40.4275 -117.0836 75° East 446 513 37,000  Level Salt Lake Center
08:02PM 40.4581 -116.9242 76° East 444 511 37,000  Level Salt Lake Center
08:03PM 40.4872 -116.7733 76° East 446 513 37,000  Level Salt Lake Center
08:04PM 40.5203 -116.5969 76° East 443 510 37,000  Level Salt Lake Center
08:05PM 40.5486 -116.4458 76° East 444 511 37,000  Level Salt Lake Center
08:06PM 40.5775 -116.2936 76° East 445 512 37,000  Level Salt Lake Center
08:07PM 40.6111 -116.1153 76° East 449 517 37,000  Level Salt Lake Center
08:08PM 40.6400 -115.9614 76° East 451 519 37,000  Level Salt Lake Center
08:09PM 40.6711 -115.7819 77° East 452 520 37,000  Level Salt Lake Center
08:10PM 40.6983 -115.6267 77° East 454 522 37,000  Level Salt Lake Center
08:11PM 40.7269 -115.4694 76° East 458 527 37,000  Level Salt Lake Center
08:12PM 40.7636 -115.2811 76° East 470 541 37,000  Level Salt Lake Center
08:13PM 40.7925 -115.1183 77° East 475 547 37,000  Level Salt Lake Center
08:14PM 40.8217 -114.9275 79° East 477 549 37,000  Level Salt Lake Center
08:15PM 40.8536 -114.7650 75° East 476 548 37,000  Level Salt Lake Center
08:16PM 40.8864 -114.5756 77° East 475 547 37,000  Level Salt Lake Center
08:17PM 40.9144 -114.4008 78° East 476 548 37,000  Level Salt Lake Center
08:18PM 40.9425 -114.2303 78° East 476 548 37,000  Level Salt Lake Center
08:19PM 40.9711 -114.0597 77° East 476 548 37,000  Level Salt Lake Center
08:20PM 40.9981 -113.8878 78° East 478 550 37,000  Level Salt Lake Center
08:21PM 41.0272 -113.7169 77° East 477 549 37,000  Level Salt Lake Center
08:22PM 41.0544 -113.5444 79° East 478 550 37,000  Level Salt Lake Center
08:23PM 41.0581 -113.5046 79° East  Level FlightAware Approximate
08:23PM 41.0811 -113.3722 78° East 478 550 37,000  Level Salt Lake Center
08:24PM 41.1139 -113.1656 78° East 479 551 37,000  Level Salt Lake Center
08:25PM 41.1417 -112.9931 78° East 479 551 37,000  Level Salt Lake Center
08:27PM 41.1605 -112.7981 83° East  Level FlightAware Approximate
08:27PM 41.1944 -112.6472 79° East 479 551 37,000  Level Salt Lake Center
08:28PM 41.2206 -112.4736 79° East 478 550 37,000  Level Salt Lake Center
08:29PM 41.2464 -112.2992 79° East 479 551 37,000  Level Salt Lake Center
08:31PM 41.2725 -112.1233 79° East 482 555 37,000  Level Salt Lake Center
08:32PM 41.2983 -111.9472 79° East 481 554 37,000  Level Salt Lake Center
08:33PM 41.3239 -111.7694 79° East 482 555 37,000  Level Salt Lake Center
08:34PM 41.3356 -111.6047 79° East  Level FlightAware Approximate
08:34PM 41.3508 -111.5919 79° East 486 559 37,000  Level Salt Lake Center
08:35PM 41.3797 -111.3789 80° East 486 559 37,000  Level Salt Lake Center
08:36PM 41.4042 -111.2022 79° East 485 558 37,000  Level Salt Lake Center
08:37PM 41.4289 -111.0247 79° East 486 559 37,000  Level Salt Lake Center
08:38PM 41.4511 -110.8564 80° East 488 562 37,000  Level Salt Lake Center
08:39PM 41.4783 -110.6575 80° East 490 564 37,000  Level Salt Lake Center
08:40PM 41.5008 -110.4875 80° East 488 562 37,000  Level Salt Lake Center
08:41PM 41.5275 -110.2872 80° East 490 564 37,000  Level Salt Lake Center
08:42PM 41.5489 -110.1181 80° East 485 558 37,000  Level Salt Lake Center
08:43PM 41.5744 -109.9181 80° East 488 562 37,000  Level Salt Lake Center
08:44PM 41.5964 -109.7458 80° East 489 563 37,000  Level Salt Lake Center
08:45PM 41.6186 -109.5747 80° East 488 562 37,000  Level Salt Lake Center
08:46PM 41.6428 -109.3739 81° East 488 562 37,000  Level Salt Lake Center
08:47PM 41.6639 -109.2017 81° East 486 559 37,000  Level Salt Lake Center
08:48PM 41.6839 -109.0311 81° East 480 552 37,000  Level Salt Lake Center
08:49PM 41.7086 -108.8306 81° East 483 556 37,000  Level Salt Lake Center
08:50PM 41.7283 -108.6594 81° East 485 558 37,000  Level Salt Lake Center
08:51PM 41.7519 -108.4589 81° East 487 560 37,000  Level Salt Lake Center
08:52PM 41.7703 -108.2850 82° East 491 565 37,000  Level Salt Lake Center
08:53PM 41.7894 -108.1108 82° East 494 568 37,000  Level Salt Lake Center
08:54PM 41.8150 -107.9094 80° East 492 566 37,000  Level Salt Lake Center
08:55PM 41.8253 -107.7928 83° East 491 565 37,000  Level Denver Center
08:56PM 41.8433 -107.6189 82° East 490 564 37,000  Level Denver Center
08:57PM 41.8642 -107.4178 82° East 489 563 37,000  Level Denver Center
08:58PM 41.8831 -107.2447 82° East 490 564 37,000  Level Denver Center
08:59PM 41.9036 -107.0414 82° East 492 566 37,000  Level Denver Center
09:00PM 41.9200 -106.8669 83° East 494 568 37,000  Level Denver Center
09:01PM 41.9381 -106.6942 82° East 491 565 37,000  Level Denver Center
09:02PM 41.9586 -106.4858 82° East 493 567 37,000  Level Denver Center
09:03PM 41.9750 -106.3125 83° East 489 563 37,000  Level Denver Center
09:04PM 41.9911 -106.1383 83° East 491 565 37,000  Level Denver Center
09:05PM 42.0094 -105.9347 83° East 492 566 37,000  Level Denver Center
09:06PM 42.0250 -105.7608 83° East 491 565 37,000  Level Denver Center
09:07PM 42.0425 -105.5575 83° East 491 565 37,000  Level Denver Center
09:08PM 42.0569 -105.3828 84° East 494 568 37,000  Level Denver Center
09:09PM 42.0756 -105.1792 83° East 492 566 37,000  Level Denver Center
09:10PM 42.0892 -105.0036 84° East 494 568 37,000  Level Denver Center
09:11PM 42.1028 -104.8275 84° East 496 571 37,000  Level Denver Center
09:12PM 42.1197 -104.6242 84° East 492 566 37,000  Level Denver Center
09:13PM 42.1328 -104.4481 84° East 496 571 37,000  Level Denver Center
09:14PM 42.1481 -104.2428 84° East 498 573 37,000  Level Denver Center
09:15PM 42.1617 -104.0667 84° East 497 572 37,000  Level Denver Center
09:16PM 42.1769 -103.8622 84° East 495 570 37,000  Level Denver Center
09:17PM 42.1903 -103.6856 84° East 496 571 37,000  Level Denver Center
09:18PM 42.2017 -103.5083 85° East 497 572 37,000  Level Denver Center
09:19PM 42.2164 -103.3014 84° East 498 573 37,000  Level Denver Center
09:20PM 42.2275 -103.1222 85° East 500 575 37,000  Level Denver Center
09:21PM 42.2456 -102.9139 83° East 502 578 37,000  Level Denver Center
09:22PM 42.2608 -102.7339 83° East 504 580 37,000  Level Denver Center
09:23PM 42.2781 -102.5244 84° East 504 580 37,000  Level Denver Center
09:24PM 42.2942 -102.3436 83° East 508 585 37,000  Level Denver Center
09:26PM 42.3069 -102.1639 84° East 505 581 37,000  Level Denver Center
09:27PM 42.3225 -101.9539 84° East 504 580 37,000  Level Denver Center
09:28PM 42.3378 -101.7542 84° East 503 579 37,000  Level Denver Center
09:29PM 42.3508 -101.5753 84° East 500 575 37,000  Level Denver Center
09:30PM 42.3644 -101.3944 84° East 503 579 37,000  Level Denver Center
09:31PM 42.3781 -101.1850 85° East 501 577 37,000  Level Denver Center
09:32PM 42.3900 -101.0050 85° East 501 577 37,000  Level Denver Center
09:33PM 42.4042 -100.7956 85° East 500 575 37,000  Level Denver Center
09:34PM 42.4158 -100.6158 85° East 501 577 37,000  Level Denver Center
09:35PM 42.4267 -100.4364 85° East 501 577 37,000  Level Denver Center
09:36PM 42.4397 -100.2242 85° East 505 581 37,000  Level Denver Center
09:37PM 42.4508 -100.0444 85° East 503 579 37,000  Level Denver Center
09:38PM 42.4622 -99.8475 85° East 504 580 37,000  Level Denver Center
09:39PM 42.4725 -99.6578 86° East 503 579 37,000  Level Denver Center
09:40PM 42.4836 -99.4667 85° East 508 585 37,000  Level Denver Center
09:41PM 42.4931 -99.2753 86° East 508 585 37,000  Level Denver Center
09:42PM 42.5031 -99.0819 86° East 511 588 37,000  Level Denver Center
09:43PM 42.5142 -98.8533 86° East 507 583 37,000  Level Denver Center
09:44PM 42.5244 -98.6619 86° East 511 588 37,000  Level Minneapolis Center
09:45PM 42.5319 -98.4700 87° East 509 586 37,000  Level Minneapolis Center
09:46PM 42.5408 -98.2761 86° East 513 590 37,000  Level Minneapolis Center
09:47PM 42.5489 -98.0847 87° East 509 586 37,000  Level Minneapolis Center
09:48PM 42.5567 -97.8931 87° East 509 586 37,000  Level Minneapolis Center
09:49PM 42.5647 -97.6958 87° East 512 589 37,000  Level Minneapolis Center
09:50PM 42.5719 -97.5019 87° East 516 594 37,000  Level Minneapolis Center
09:51PM 42.5789 -97.3056 87° East 520 598 37,000  Level Minneapolis Center
09:52PM 42.5853 -97.1097 87° East 519 597 37,000  Level Minneapolis Center
09:53PM 42.5917 -96.9131 87° East 520 598 37,000  Level Minneapolis Center
09:54PM 42.5975 -96.7144 88° East 523 602 37,000  Level Minneapolis Center
09:55PM 42.6031 -96.5144 88° East 529 609 37,000  Level Minneapolis Center
09:56PM 42.6086 -96.3119 88° East 532 612 37,000  Level Minneapolis Center
09:57PM 42.6150 -96.0686 88° East 538 619 37,000  Level Minneapolis Center
09:58PM 42.6203 -95.8667 88° East 535 616 37,000  Level Minneapolis Center
09:59PM 42.6233 -95.6633 89° East 536 617 37,000  Level Minneapolis Center
10:00PM 42.6272 -95.4608 88° East 536 617 37,000  Level Minneapolis Center
10:01PM 42.6306 -95.2581 89° East 536 617 37,000  Level Minneapolis Center
10:02PM 42.6339 -95.0553 89° East 536 617 37,000  Level Minneapolis Center
10:03PM 42.6364 -94.8544 89° East 533 613 37,000  Level Minneapolis Center
10:04PM 42.6397 -94.6533 89° East 532 612 37,000  Level Minneapolis Center
10:05PM 42.6400 -94.4458 90° East 532 612 37,000 720 Level Minneapolis Center
10:06PM 42.6419 -94.2633 89° East 497 572 38,500 780 Climbing Minneapolis Center
10:07PM 42.6433 -94.0783 89° East 492 566 38,700 240 Climbing Minneapolis Center
10:08PM 42.6453 -93.8861 89° East 507 583 39,000 180 Climbing Minneapolis Center
10:10PM 42.6456 -93.6897 90° East 520 598 39,100 240 Climbing Minneapolis Center
10:11PM 42.6464 -93.4456 90° East 537 618 39,500 240 Climbing Minneapolis Center
10:12PM 42.6467 -93.2419 90° East 543 625 39,700 240 Climbing Minneapolis Center
10:13PM 42.6453 -93.0392 90° East 543 625 40,000 180 Climbing Minneapolis Center
10:13PM 42.6453 -92.9569 90° East 541 623 40,000 180 Level Chicago Center
10:14PM 42.6433 -92.7156 91° East 537 618 40,300 480 Climbing Chicago Center
10:15PM 42.6431 -92.5169 90° East 533 613 41,000 300 Climbing Chicago Center
10:16PM 42.6419 -92.3217 90° East 524 603 41,000  Level Chicago Center
10:17PM 42.6383 -92.1267 91° East 525 604 41,000  Level Chicago Center
10:18PM 42.6369 -91.9344 90° East 519 597 41,000  Level Chicago Center
10:19PM 42.6333 -91.7447 91° East 517 595 41,000  Level Chicago Center
10:20PM 42.6308 -91.5169 91° East 521 600 41,000  Level Chicago Center
10:21PM 42.6289 -91.3272 91° East 519 597 41,000  Level Chicago Center
10:22PM 42.6258 -91.1400 91° East 507 583 41,000  Level Chicago Center
10:23PM 42.6208 -90.9492 92° East 511 588 41,000  Level Chicago Center
10:24PM 42.6206 -90.7542 90° East 520 598 41,000  Level Chicago Center
10:25PM 42.6147 -90.5617 92° East 519 597 41,000  Level Chicago Center
10:26PM 42.6108 -90.3681 91° East 518 596 41,000  Level Chicago Center
10:27PM 42.6044 -90.1378 92° East 516 594 41,000  Level Chicago Center
10:28PM 42.5983 -89.9464 92° East 515 593 41,000  Level Chicago Center
10:29PM 42.5894 -89.7547 94° East 506 582 41,000  Level Chicago Center
10:30PM 42.5831 -89.5603 92° East 519 597 41,000  Level Chicago Center
10:31PM 42.5767 -89.3678 93° East 518 596 41,000  Level Chicago Center
10:32PM 42.5694 -89.1739 93° East 519 597 41,000  Level Chicago Center
10:33PM 42.5636 -88.9794 92° East 522 601 41,000  Level Chicago Center
10:34PM 42.5564 -88.7844 93° East 523 602 41,000  Level Chicago Center
10:35PM 42.5461 -88.5519 93° East 520 598 41,000  Level Chicago Center
10:36PM 42.5381 -88.3597 93° East 517 595 41,000  Level Chicago Center
10:38PM 42.5297 -88.1672 93° East 515 593 41,000  Level Chicago Center
10:39PM 42.5214 -87.9750 93° East 514 592 41,000  Level Chicago Center
10:40PM 42.5117 -87.7842 94° East 512 589 41,000  Level Chicago Center
10:41PM 42.5036 -87.6058 93° East 513 590 41,000  Level Chicago Center
10:42PM 42.4911 -87.3756 94° East 513 590 41,000  Level Chicago Center
10:43PM 42.4822 -87.1842 94° East 511 588 41,000  Level Chicago Center
10:44PM 42.4708 -86.9917 95° East 513 590 41,000  Level Chicago Center
10:45PM 42.4600 -86.7994 94° East 514 592 41,000  Level Chicago Center
10:46PM 42.4494 -86.6267 95° East 515 593 41,000  Level Chicago Center
10:47PM 42.4392 -86.4347 94° East 514 592 41,000  Level Chicago Center
10:48PM 42.4242 -86.2069 95° East 512 589 41,000  Level Chicago Center
10:49PM 42.4119 -86.0153 95° East 514 592 41,000  Level Chicago Center
10:50PM 42.3997 -85.8239 95° East 516 594 41,000  Level Chicago Center
10:51PM 42.3875 -85.6331 95° East 515 593 41,000  Level Chicago Center
10:52PM 42.3747 -85.4425 95° East 514 592 41,000  Level Chicago Center
10:53PM 42.3622 -85.2494 95° East 511 588 41,000  Level Chicago Center
10:54PM 42.3489 -85.0600 95° East 510 587 41,000  Level Chicago Center
10:55PM 42.3347 -84.8764 96° East 506 582 41,000  Level Chicago Center
10:56PM 42.3206 -84.6864 96° East 510 587 41,000  Level Chicago Center
10:57PM 42.3064 -84.4975 96° East 508 585 41,000  Level Chicago Center
10:58PM 42.2886 -84.2722 96° East 505 581 41,000  Level Chicago Center
10:59PM 42.2742 -84.0861 96° East 503 579 41,000  Level Chicago Center
11:00PM 42.2589 -83.8992 96° East 502 578 41,000  Level Chicago Center
11:01PM 42.2433 -83.7125 96° East 502 578 41,000  Level Chicago Center
11:02PM 42.2189 -83.4358 97° East 507 583 41,000  Level Cleveland Center
11:03PM 42.2000 -83.2478 98° East 504 580 41,000  Level Cleveland Center
11:04PM 42.1850 -83.0767 97° East 503 579 41,000  Level Cleveland Center
11:05PM 42.1686 -82.8911 97° East 502 578 41,000  Level Cleveland Center
11:06PM 42.1483 -82.6672 97° East 504 580 41,000  Level Cleveland Center
11:07PM 42.1303 -82.4811 97° East 503 579 41,000  Level Cleveland Center
11:08PM 42.1125 -82.2931 97° East 506 582 41,000  Level Cleveland Center
11:09PM 42.0956 -82.1119 97° East 507 583 41,000  Level Cleveland Center
11:10PM 42.0747 -81.9225 98° East 506 582 41,000  Level Cleveland Center
11:12PM 42.0567 -81.7317 97° East 507 583 41,000  Level Cleveland Center
11:13PM 42.0372 -81.5414 98° East 507 583 41,000  Level Cleveland Center
11:14PM 42.0164 -81.3519 98° East 506 582 41,000  Level Cleveland Center
11:15PM 41.9972 -81.1608 98° East 508 585 41,000  Level Cleveland Center
11:16PM 41.9761 -80.9700 98° East 510 587 41,000  Level Cleveland Center
11:17PM 41.9547 -80.7800 99° East 509 586 41,000  Level Cleveland Center
11:18PM 41.9342 -80.5903 98° East 508 585 41,000  Level Cleveland Center
11:19PM 41.9133 -80.4014 98° East 507 583 41,000  Level Cleveland Center
11:20PM 41.8911 -80.2103 99° East 511 588 41,000  Level Cleveland Center
11:21PM 41.8717 -80.0183 98° East 513 590 41,000  Level Cleveland Center
11:22PM 41.8628 -79.8275 94° East 511 588 41,000  Level Cleveland Center
11:23PM 41.8508 -79.6239 94° East 510 587 41,000  Level Cleveland Center
11:24PM 41.8403 -79.4378 94° East 504 580 41,000  Level Cleveland Center
11:25PM 41.8294 -79.2719 95° East 507 583 41,000  Level Cleveland Center
11:26PM 41.8178 -79.0839 95° East 508 585 41,000  Level Cleveland Center
11:27PM 41.8050 -78.8733 95° East 507 583 41,000  Level Cleveland Center
11:28PM 41.7925 -78.6861 95° East 506 582 41,000  Level Cleveland Center
11:29PM 41.7800 -78.4989 95° East 506 582 41,000  Level Cleveland Center
11:30PM 41.7664 -78.3100 95° East 508 585 41,000  Level Cleveland Center
11:31PM 41.7531 -78.1211 95° East 509 586 41,000  Level Cleveland Center
11:32PM 41.7397 -77.9339 95° East 508 585 41,000  Level Cleveland Center
11:32PM 41.7297 -77.8058 96° East 504 580 41,000  Level New York Center
11:33PM 41.7156 -77.6181 96° East 505 581 41,000 -120 Level New York Center
11:34PM 41.7011 -77.4333 96° East 505 581 40,800 -1,380 Descending New York Center
11:35PM 41.6861 -77.2511 96° East 505 581 38,300 -2,400 Descending New York Center
11:36PM 41.6583 -77.0708 102° East 505 581 36,000 -2,400 Descending New York Center
11:37PM 41.6142 -76.9194 111° Southeast 500 575 33,600 -2,400 Descending New York Center
11:38PM 41.5708 -76.7519 109° East 489 563 31,300 -2,460 Descending New York Center
11:39PM 41.5231 -76.5814 110° East 467 537 28,700 -2,340 Descending New York Center
11:40PM 41.4808 -76.4200 109° East 459 528 26,700 -1,740 Descending New York Center
11:41PM 41.4458 -76.2758 108° East 459 528 25,300 -1,680 Descending New York Center
11:42PM 41.3947 -76.1167 113° Southeast 459 528 23,400 -1,860 Descending New York Center
11:43PM 41.3497 -75.9611 111° Southeast 459 528 21,600 -1,800 Descending New York Center
11:44PM 41.3006 -75.7972 112° Southeast 464 534 19,800 -1,800 Descending New York Center
11:45PM 41.2514 -75.6278 111° Southeast 469 540 18,100 -2,400 Descending New York Center
11:46PM 41.1975 -75.4614 113° Southeast 454 522 15,100 -2,880 Descending New York Center
11:47PM 41.1508 -75.3258 115° Southeast 424 488 12,400 -2,160 Descending New York Center
11:48PM 41.1117 -75.2075 114° Southeast 386 444 10,800 -1,680 Descending New York Center
11:49PM 41.0778 -75.1089 114° Southeast 330 380 9,100 -1,860 Descending New York Center
11:50PM 41.0442 -75.0022 113° Southeast 292 336 7,100 -1,560 Descending New York Center
11:51PM 41.0117 -74.9206 118° Southeast 277 319 6,000 -720 Descending New York Center
11:52PM 40.9711 -74.8300 121° Southeast 266 306 5,700 -540 Descending New York Center
11:53PM 40.9281 -74.7425 123° Southeast 272 313 5,000 -720 Descending New York Center
11:54PM 40.8872 -74.6550 122° Southeast 277 319 4,300 -600 Descending New York Center
11:55PM 40.8464 -74.5703 122° Southeast 277 319 3,800 -540 Descending New York Center
11:56PM 40.8031 -74.4856 124° Southeast 277 319 3,300 -480 Descending New York Center
11:57PM 40.7581 -74.3983 124° Southeast 283 326 2,900 -600 Descending New York Center
11:58PM 40.7269 -74.3253 119° Southeast 270 311 2,100 -720 Descending New York Center
11:59PM 40.7314 -74.2436 86° East 207 238 1,500 -360 Descending New York Center
12:00AM 40.7578 -74.1983 52° Northeast 167 192 1,400 -60 Descending New York Center
12:01AM 40.7817 -74.1667 45° Northeast 135 155 1,400 -180 Level New York Center
12:02AM 40.8053 -74.1350 45° Northeast 110 127 1,100 -300 Descending New York Center
12:04AM 40.8167 -74.0833 74° East 123 142 800 -240 Descending New York TRACON
12:06AM 40.8500 -74.0500 47° Northeast  Level FlightAware Approximate
12:13AM 40.8501 -74.0608 47° Northeast  Level Estimated
12:14AM 40.8501 -74.0608 47° Northeast  Level Estimated